• Join FlightAware (Why Join?)
  • Login
  • US Flag 
06:35AM EDT


 

Airport Tracker/Info


-or-


 

Live Flight TrackerFlight Track Log ✈ FDX1545 ✈ 08-May-2013 ✈ KMEM - KSFO

Flight Track Log - Related Links

Times and Time Zones

All times are in EDT time to prevent confusion due to time zone crossing. See the FDX1545 flight status page for this flight to view local times or setup timezone preferences in your user account.

Time Position Orientation Groundspeed Altitude Reporting Facility
EDT Latitude Longitude Course Direction KTS MPH feet Rate Location/Type
04:11AM 35.0167 -89.9833 195° South 171 197 1,300  Level KMEM
04:12AM 34.9667 -90.0000 195° South 208 239 2,900 2,040 Climbing KMEM
04:13AM 34.9333 -90.0833 244° Southwest 275 316 5,800 2,940 Climbing KMEM
04:14AM 34.9500 -90.1667 284° West 275 316 9,100 2,580 Climbing KMEM
04:15AM 34.9678 -90.2886 280° West 313 360 11,200 2,040 Climbing Memphis Center
04:16AM 34.9739 -90.4103 274° West 357 411 13,300 2,640 Climbing Memphis Center
04:17AM 34.9717 -90.5447 269° West 389 448 16,500 2,760 Climbing Memphis Center
04:18AM 34.9756 -90.6814 272° West 402 463 18,900 2,400 Climbing Memphis Center
04:19AM 34.9961 -90.8211 280° West 422 486 21,300 2,040 Climbing Memphis Center
04:20AM 35.0394 -90.9606 291° West 427 491 23,000 1,500 Climbing Memphis Center
04:21AM 35.0761 -91.0853 290° West 441 507 24,300 1,560 Climbing Memphis Center
04:22AM 35.1192 -91.2278 290° West 449 517 26,200 1,620 Climbing Memphis Center
04:23AM 35.1639 -91.3756 290° West 449 517 27,600 1,680 Climbing Memphis Center
04:24AM 35.2064 -91.5211 290° West 449 517 29,600 1,980 Climbing Memphis Center
04:25AM 35.2508 -91.6664 291° West 449 517 31,600 2,100 Climbing Memphis Center
04:26AM 35.2911 -91.8044 290° West 449 517 33,900 1,200 Climbing Memphis Center
04:27AM 35.3311 -91.9400 290° West 439 505 34,000  Climbing Memphis Center
04:28AM 35.3711 -92.0708 291° West 425 489 34,000  Level Memphis Center
04:29AM 35.4089 -92.2064 289° West 420 483 34,000  Level Memphis Center
04:30AM 35.4464 -92.3372 289° West 420 483 34,000  Level Memphis Center
04:31AM 35.4858 -92.4733 290° West 420 483 34,000  Level Memphis Center
04:32AM 35.5292 -92.6225 290° West 425 489 34,000  Level Memphis Center
04:33AM 35.5683 -92.7614 289° West 430 495 34,000  Level Memphis Center
04:34AM 35.6072 -92.8978 289° West 430 495 34,000  Level Memphis Center
04:35AM 35.6461 -93.0369 289° West 425 489 34,000  Level Memphis Center
04:36AM 35.6808 -93.1608 289° West 419 482 34,000  Level Memphis Center
04:37AM 35.7194 -93.2950 290° West 419 482 34,000  Level Memphis Center
04:38AM 35.7581 -93.4319 289° West 419 482 34,000  Level Memphis Center
04:39AM 35.7961 -93.5717 289° West 419 482 34,000  Level Memphis Center
04:40AM 35.8344 -93.7061 289° West 425 489 34,000  Level Memphis Center
04:41AM 35.8703 -93.8433 288° West 425 489 34,000  Level Memphis Center
04:42AM 35.9100 -93.9808 290° West 425 489 34,000  Level Memphis Center
04:43AM 35.9475 -94.1211 288° West 430 495 34,000  Level Memphis Center
04:44AM 35.9828 -94.2636 287° West 430 495 34,000  Level Memphis Center
04:45AM 36.0242 -94.4042 290° West 430 495 34,000  Level Memphis Center
04:46AM 36.0611 -94.5472 288° West 430 495 34,000  Level Memphis Center
04:48AM 36.1486 -94.8644 289° West 436 502 34,000  Level Kansas City Center
04:49AM 36.1864 -95.0069 288° West 435 501 34,000  Level Kansas City Center
04:50AM 36.2231 -95.1472 288° West 436 502 34,000  Level Kansas City Center
04:51AM 36.2600 -95.2886 288° West 435 501 34,000  Level Kansas City Center
04:52AM 36.2967 -95.4317 288° West 436 502 34,000  Level Kansas City Center
04:53AM 36.3331 -95.5742 288° West 435 501 34,000  Level Kansas City Center
04:54AM 36.3692 -95.7158 288° West 433 498 34,000  Level Kansas City Center
04:55AM 36.3883 -95.8797 278° West 428 493 34,000  Level Kansas City Center
05:00AM 36.4614 -96.6244 281° West 434 499 34,000  Level Kansas City Center
05:01AM 36.4750 -96.7130 278° West 34,000  Level FlightAware
05:01AM 36.4842 -96.7767 281° West 434 499 34,000  Level Kansas City Center
05:02AM 36.5094 -96.9233 282° West 435 501 34,000  Level Kansas City Center
05:03AM 36.5322 -97.0706 281° West 436 502 34,000  Level Kansas City Center
05:04AM 36.5569 -97.2186 282° West 438 504 34,000  Level Kansas City Center
05:05AM 36.5803 -97.3700 281° West 443 510 34,000  Level Kansas City Center
05:06AM 36.6036 -97.5164 281° West 449 517 34,000  Level Kansas City Center
05:07AM 36.4421 -97.5563 281° West  Level FlightAware Approximate
05:07AM 36.6264 -97.6681 281° West 448 516 34,000  Level Kansas City Center
05:08AM 36.6514 -97.8203 282° West 445 512 34,000  Level Kansas City Center
05:09AM 36.6739 -97.9694 281° West 442 509 34,000  Level Kansas City Center
05:10AM 36.6961 -98.1186 281° West 440 506 34,000  Level Kansas City Center
05:11AM 36.7211 -98.2947 280° West 437 503 34,000  Level Kansas City Center
05:12AM 36.7447 -98.4442 281° West 436 502 34,000  Level Kansas City Center
05:13AM 36.7572 -98.6011 276° West 451 519 34,000  Level Kansas City Center
05:14AM 36.7603 -98.7508 272° West 445 512 34,000  Level Kansas City Center
05:15AM 36.7650 -98.8994 272° West 433 498 34,000  Level Kansas City Center
05:16AM 36.7711 -99.0531 273° West 442 509 34,000  Level Kansas City Center
05:17AM 36.7781 -99.1983 273° West 425 489 34,000  Level Kansas City Center
05:18AM 36.7836 -99.3478 273° West 431 496 34,000  Level Kansas City Center
05:19AM 36.7919 -99.4936 274° West 424 488 34,000  Level Kansas City Center
05:20AM 36.7989 -99.6381 273° West 418 481 34,000  Level Kansas City Center
05:21AM 36.8031 -99.7889 272° West 428 493 34,000  Level Kansas City Center
05:23AM 36.8100 -99.9364 273° West 427 491 34,000  Level Kansas City Center
05:24AM 36.8156 -100.0919 273° West 432 497 34,000  Level Kansas City Center
05:25AM 36.8356 -100.2322 280° West 431 496 34,000  Level Kansas City Center
05:26AM 36.8594 -100.3975 280° West 431 496 34,000  Level Kansas City Center
05:27AM 36.8803 -100.5419 280° West 437 503 34,000  Level Kansas City Center
05:28AM 36.9000 -100.6883 280° West 443 510 34,000  Level Kansas City Center
05:29AM 36.9231 -100.8578 280° West 442 509 34,000  Level Kansas City Center
05:30AM 36.9433 -101.0022 280° West 440 506 34,000  Level Kansas City Center
05:31AM 36.9631 -101.1472 280° West 440 506 34,000  Level Kansas City Center
05:32AM 36.9828 -101.2911 280° West 438 504 34,000  Level Kansas City Center
05:33AM 37.0047 -101.4581 279° West 436 502 34,000  Level Kansas City Center
05:34AM 37.0239 -101.6031 279° West 438 504 34,000  Level Kansas City Center
05:35AM 37.0425 -101.7447 279° West 434 499 34,000  Level Kansas City Center
05:36AM 37.0642 -101.9119 279° West 435 501 34,000 240 Level Albuquerque Center
05:42AM 37.1728 -102.7920 279° West 428 493 36,000 300 Climbing FlightAware ADS-B
05:42AM 37.1817 -102.8660 279° West 436 502 36,000  Level FlightAware ADS-B
05:43AM 37.1904 -102.9390 279° West 436 502 36,000  Level FlightAware ADS-B
05:43AM 37.1992 -103.0130 279° West 419 482 36,000  Level FlightAware ADS-B
05:44AM 37.2078 -103.0860 278° West 406 467 36,000  Level FlightAware ADS-B
05:44AM 37.2166 -103.1610 278° West 420 483 36,000  Level FlightAware ADS-B
05:45AM 37.2251 -103.2340 278° West 427 491 36,000  Level FlightAware ADS-B
05:45AM 37.2339 -103.3080 279° West 440 506 36,000  Level FlightAware ADS-B
05:46AM 37.2443 -103.4000 278° West 430 495 36,000  Level FlightAware ADS-B
05:46AM 37.2528 -103.4730 278° West 418 481 36,000  Level FlightAware ADS-B
05:47AM 37.2612 -103.5480 278° West 410 472 36,000  Level FlightAware ADS-B
05:47AM 37.2709 -103.6350 278° West 422 486 36,000  Level FlightAware ADS-B
05:48AM 37.2819 -103.7310 278° West 426 490 36,000  Level FlightAware ADS-B
05:49AM 37.2931 -103.8300 278° West 435 501 36,000  Level FlightAware ADS-B
05:49AM 37.3015 -103.9060 278° West 435 501 36,000  Level FlightAware ADS-B
05:50AM 37.3096 -103.9790 278° West 431 496 36,000  Level FlightAware ADS-B
05:50AM 37.3183 -104.0600 278° West 426 490 36,000  Level FlightAware ADS-B
05:51AM 37.3280 -104.1510 278° West 427 491 36,000  Level FlightAware ADS-B
05:51AM 37.3362 -104.2260 278° West 438 504 36,000  Level FlightAware ADS-B
05:52AM 37.3485 -104.3390 278° West 425 489 36,000  Level FlightAware ADS-B
05:53AM 37.3564 -104.4150 277° West 421 484 36,000  Level FlightAware ADS-B
05:53AM 37.3688 -104.5310 278° West 423 487 36,000  Level FlightAware ADS-B
05:56AM 37.4068 -104.8990 278° West 434 499 36,000  Level FlightAware ADS-B
05:56AM 37.4146 -104.9760 277° West 445 512 36,000  Level FlightAware ADS-B
05:57AM 37.4222 -105.0520 277° West 442 509 36,000  Level FlightAware ADS-B
05:57AM 37.4306 -105.1370 277° West 437 503 36,000  Level FlightAware ADS-B
05:58AM 37.4385 -105.2150 277° West 450 518 36,000  Level FlightAware ADS-B
05:58AM 37.4460 -105.2920 277° West 452 520 36,000  Level FlightAware ADS-B
05:59AM 37.4538 -105.3700 277° West 423 487 36,000  Level FlightAware ADS-B
05:59AM 37.4615 -105.4490 277° West 442 509 36,000  Level FlightAware ADS-B
06:00AM 37.4687 -105.5250 277° West 433 498 36,000  Level FlightAware ADS-B
06:00AM 37.4769 -105.6120 277° West 446 513 36,000  Level FlightAware ADS-B
06:01AM 37.4843 -105.6880 277° West 437 503 36,000  Level FlightAware ADS-B
06:01AM 37.4917 -105.7650 277° West 441 507 36,000  Level FlightAware ADS-B
06:02AM 37.4989 -105.8420 277° West 449 517 36,000  Level FlightAware ADS-B
06:02AM 37.5061 -105.9210 277° West 449 517 36,000  Level FlightAware ADS-B
06:03AM 37.5137 -106.0030 277° West 473 544 36,000  Level FlightAware ADS-B
06:04AM 37.5211 -106.0878 277° West 447 514 36,000  Level Denver Center
06:05AM 37.5369 -106.2625 277° West 450 518 36,000  Level Denver Center
06:06AM 37.5514 -106.4133 277° West 453 521 36,000  Level Denver Center
06:07AM 37.5628 -106.5622 276° West 448 516 36,000  Level Denver Center
06:08AM 37.5792 -106.7392 277° West 456 525 36,000  Level Denver Center
06:09AM 37.5925 -106.8906 276° West 456 525 36,000  Level Denver Center
06:10AM 37.6053 -107.0394 276° West 450 518 36,000  Level Denver Center
06:11AM 37.6169 -107.1900 276° West 452 520 36,000  Level Denver Center
06:12AM 37.6314 -107.3675 276° West 454 522 36,000  Level Denver Center
06:17AM 37.6980 -108.2300 276° West 36,000  Level FlightAware
06:18AM 37.7053 -108.3369 276° West 464 534 36,000  Level Denver Center
06:19AM 37.7169 -108.4906 276° West 462 532 36,000  Level Denver Center
06:20AM 37.7267 -108.6417 275° West 456 525 36,000  Level Denver Center
06:25AM 37.7860 -109.5430 275° West 36,000  Level FlightAware
06:26AM 37.7903 -109.6067 275° West 461 531 36,000  Level Denver Center
06:27AM 37.7989 -109.7606 274° West 461 531 36,000  Level Denver Center
06:28AM 37.8089 -109.9150 275° West 461 531 36,000  Level Denver Center
06:29AM 37.8186 -110.0942 274° West 459 528 36,000  Level Denver Center
06:30AM 37.8292 -110.2500 275° West 462 532 36,000  Level Denver Center
06:31AM 37.8483 -110.4036 279° West 463 533 36,000  Level Denver Center
06:32AM 37.8672 -110.5642 279° West 463 533 36,000  Level Denver Center
06:33AM 37.8858 -110.7244 278° West 462 532 36,000  Level Denver Center
06:34AM 37.9044 -110.8864 278° West 465 535 36,000  Level Denver Center
06:35AM 37.9228 -111.0489 278° West 467 537 36,000  Level Denver Center
06:36AM 37.9400 -111.2106 278° West 466 536 36,000  Level Denver Center
06:36AM 37.9472 -111.2761 278° West 468 539 36,000  Level Salt Lake Center
06:37AM 37.9656 -111.4378 278° West 467 537 36,000  Level Salt Lake Center
06:38AM 37.9831 -111.5986 278° West 464 534 36,000  Level Salt Lake Center
06:39AM 38.0006 -111.7592 278° West 463 533 36,000  Level Salt Lake Center
06:40AM 38.0167 -111.9208 277° West 464 534 36,000  Level Salt Lake Center
06:41AM 38.0344 -112.0817 278° West 464 534 36,000  Level Salt Lake Center
06:42AM 38.0519 -112.2422 278° West 464 534 36,000  Level Salt Lake Center
06:43AM 38.0683 -112.4036 277° West 464 534 36,000  Level Salt Lake Center
06:44AM 38.0872 -112.5969 277° West 464 534 36,000  Level Salt Lake Center
06:45AM 38.1028 -112.7581 277° West 464 534 36,000  Level Salt Lake Center
06:46AM 38.1183 -112.9186 277° West 463 533 36,000  Level Salt Lake Center
06:47AM 38.1328 -113.0797 277° West 463 533 36,000  Level Salt Lake Center
06:48AM 38.1475 -113.2400 277° West 462 532 36,000  Level Salt Lake Center
06:49AM 38.1642 -113.4031 277° West 466 536 36,000  Level Salt Lake Center
06:50AM 38.1789 -113.5658 277° West 468 539 36,000  Level Salt Lake Center
06:51AM 38.1928 -113.7275 276° West 464 534 36,000  Level Salt Lake Center
06:52AM 38.2072 -113.8900 277° West 465 535 36,000  Level Salt Lake Center
06:53AM 38.2228 -114.0531 277° West 466 536 36,000  Level Salt Lake Center
06:59AM 38.2120 -115.0130 277° West 36,000  Level FlightAware
07:00AM 38.2000 -115.1981 277° West 463 533 36,000  Level Salt Lake Center
07:01AM 38.1867 -115.3731 265° West 468 539 36,000  Level Salt Lake Center
07:02AM 38.1764 -115.5367 265° West 466 536 36,000  Level Salt Lake Center
07:03AM 38.1650 -115.7022 265° West 468 539 36,000  Level Salt Lake Center
07:04AM 38.1528 -115.8675 265° West 471 542 36,000  Level Salt Lake Center
07:05AM 38.1411 -116.0331 265° West 469 540 36,000  Level Salt Lake Center
07:06AM 38.1292 -116.1964 265° West 468 539 36,000  Level Salt Lake Center
07:07AM 38.1167 -116.3606 265° West 467 537 36,000  Level Salt Lake Center
07:08AM 38.1050 -116.5261 265° West 468 539 36,000  Level Oakland Center
07:09AM 38.0917 -116.6919 264° West 471 542 36,000  Level Salt Lake Center
07:10AM 38.0772 -116.8553 264° West 469 540 36,000  Level Salt Lake Center
07:11AM 38.0622 -117.0178 263° West 463 533 36,000  Level Salt Lake Center
07:12AM 38.0472 -117.1839 264° West 461 531 36,000  Level Salt Lake Center
07:13AM 38.0314 -117.3481 263° West 456 525 36,000  Level Salt Lake Center
07:14AM 38.0189 -117.4769 263° West 456 525 36,000  Level Salt Lake Center
07:15AM 38.0031 -117.6386 263° West 459 528 36,000  Level Salt Lake Center
07:16AM 37.9875 -117.7994 263° West 460 529 36,000 -1,020 Level Salt Lake Center
07:22AM 37.8970 -118.6700 263° West 36,000 -1,080 Level FlightAware
07:24AM 37.8610 -119.0020 262° West 36,000 -1,260 Level FlightAware
07:25AM 37.8470 -119.1270 262° West 36,000 -1,380 Level FlightAware
07:25AM 37.8340 -119.2400 262° West 36,000 -1,380 Level FlightAware
07:26AM 37.8230 -119.3380 262° West 36,000 -1,440 Level FlightAware
07:27AM 37.8080 -119.4710 262° West 36,000 -1,500 Level FlightAware
07:27AM 37.7950 -119.5820 262° West 36,000 -1,560 Level FlightAware
07:28AM 37.7830 -119.6840 262° West 36,000 -1,560 Level FlightAware
07:29AM 37.7640 -119.8500 262° West 36,000 -1,620 Level FlightAware
07:30AM 37.7530 -119.9400 261° West 36,000 -1,680 Level FlightAware
07:30AM 37.7380 -120.0670 262° West 36,000 -1,740 Level FlightAware
07:31AM 37.7250 -120.1720 261° West 36,000 -1,800 Level FlightAware
07:32AM 37.7100 -120.2970 261° West 35,200 -1,920 Descending FlightAware
07:32AM 37.6970 -120.4060 261° West 33,000 -1,920 Descending FlightAware
07:33AM 37.6840 -120.5070 261° West 30,900 -1,860 Descending FlightAware
07:34AM 37.6710 -120.6290 262° West 27,700 -1,800 Descending FlightAware
07:35AM 37.6580 -120.7500 262° West 25,100 -1,680 Descending FlightAware
07:35AM 37.6480 -120.8470 263° West 23,300 -1,620 Descending FlightAware
07:36AM 37.6360 -120.9530 262° West 20,900 -1,560 Descending FlightAware
07:37AM 37.6250 -121.0540 262° West 19,200 -1,440 Descending FlightAware
07:37AM 37.6130 -121.1570 262° West 16,800 -1,380 Descending FlightAware
07:38AM 37.6030 -121.2470 262° West 14,900 -1,260 Descending FlightAware
07:39AM 37.5910 -121.3520 262° West 12,700 -1,200 Descending FlightAware
07:39AM 37.5810 -121.4380 262° West 11,400 -1,080 Descending FlightAware
07:40AM 37.5690 -121.5460 262° West 10,500 -1,020 Descending FlightAware
07:41AM 37.5600 -121.6260 262° West 9,700 -1,020 Descending FlightAware
07:42AM 37.5550 -121.6680 261° West 9,000 -1,020 Descending FlightAware
07:42AM 37.5490 -121.7160 261° West 8,300 -960 Descending FlightAware
07:43AM 37.5430 -121.7650 261° West 7,900 -900 Descending FlightAware
07:43AM 37.5380 -121.8020 260° West 7,900 -900 Level FlightAware
07:43AM 37.5330 -121.8460 262° West 7,900 -960 Level FlightAware
07:44AM 37.5310 -121.8640 262° West 7,600 -1,080 Descending FlightAware
07:44AM 37.5260 -121.9110 262° West 6,600 -1,020 Descending FlightAware
07:45AM 37.5210 -121.9540 262° West 6,000 -960 Descending FlightAware
07:45AM 37.5160 -121.9930 261° West 5,700 -900 Descending FlightAware
07:46AM 37.5130 -122.0330 265° West 4,900 -960 Descending FlightAware
07:46AM 37.5110 -122.0720 266° West 4,000 -840 Descending FlightAware
07:46AM 37.5100 -122.1030 268° West 3,500 -720 Descending FlightAware
07:47AM 37.5200 -122.1360 291° West 3,200 -660 Descending FlightAware
07:47AM 37.5320 -122.1640 298° West 2,700 -660 Descending FlightAware
07:48AM 37.5420 -122.1880 298° West 2,400 -540 Descending FlightAware
07:48AM 37.5520 -122.2120 298° West 2,300 -480 Descending FlightAware
07:49AM 37.5667 -122.2667 298° West 136 157 1,700 -600 Descending Northern Cal TRACON
07:50AM 37.5833 -122.3000 302° West 127 146 1,100 -720 Descending Northern Cal TRACON
07:51AM 37.6000 -122.3500 293° West 124 143 300 -480 Descending Northern Cal TRACON
07:53AM 37.6247 -122.3822 314° West 129 148 100 -180 Descending Oakland Center
07:55AM 37.6167 -122.3667 322° Northwest  Level FlightAware Approximate